Wetterdaten: Montag, 21.12.2015
Datum Zeit Temp. A. Mod.Schuppen Feuchte A. Luftdruck Regen Wind Richtung Richtung Sonnenschein Helligkeit Solar
21.12.2015 00:00 11,5 C 10,5 C 78 % 1018,0 hPa 0,0 l/m 17,4 km/h (3 Bft) S22.5 170 0 min 0 lux 0 W/m
21.12.2015 00:05 11,5 C 10,4 C 78 % 1018,0 hPa 0,0 l/m 17,4 km/h (3 Bft) S22.5 170 0 min 0 lux 0 W/m
21.12.2015 00:10 11,5 C 10,3 C 78 % 1018,0 hPa 0,0 l/m 17,4 km/h (3 Bft) S22.5 170 0 min 0 lux 0 W/m
21.12.2015 00:15 11,5 C 10,3 C 78 % 1018,0 hPa 0,0 l/m 17,4 km/h (3 Bft) S22.5 170 0 min 0 lux 0 W/m
21.12.2015 00:20 11,7 C 10,5 C 78 % 1018,0 hPa 0,0 l/m 17,4 km/h (3 Bft) S22.5 170 0 min 0 lux 0 W/m
21.12.2015 00:25 11,8 C 10,6 C 78 % 1018,0 hPa 0,0 l/m 17,4 km/h (3 Bft) S22.5 170 0 min 0 lux 0 W/m
21.12.2015 00:30 11,8 C 10,6 C 78 % 1018,0 hPa 0,0 l/m 17,4 km/h (3 Bft) S22.5 170 0 min 0 lux 0 W/m
21.12.2015 00:35 11,8 C 10,7 C 78 % 1018,0 hPa 0,0 l/m 17,4 km/h (3 Bft) S22.5 170 0 min 0 lux 0 W/m
21.12.2015 00:40 11,9 C 10,8 C 78 % 1018,0 hPa 0,0 l/m 17,4 km/h (3 Bft) S22.5 170 0 min 400 lux 0 W/m
21.12.2015 00:45 11,9 C 10,8 C 78 % 1018,0 hPa 0,0 l/m 17,4 km/h (3 Bft) S22.5 170 0 min 0 lux 0 W/m
21.12.2015 00:50 11,8 C 10,7 C 78 % 1018,0 hPa 0,0 l/m 17,4 km/h (3 Bft) S22.5 170 0 min 0 lux 0 W/m
21.12.2015 00:55 11,8 C 10,8 C 78 % 1018,0 hPa 0,0 l/m 17,4 km/h (3 Bft) S22.5 170 0 min 0 lux 0 W/m
21.12.2015 01:00 11,8 C 10,9 C 78 % 1018,0 hPa 0,0 l/m 17,4 km/h (3 Bft) S22.5 170 0 min 0 lux 0 W/m
21.12.2015 01:05 11,8 C 10,9 C 78 % 1018,0 hPa 0,0 l/m 17,4 km/h (3 Bft) S22.5 170 0 min 0 lux 0 W/m
21.12.2015 01:10 11,8 C 10,9 C 78 % 1018,0 hPa 0,0 l/m 17,4 km/h (3 Bft) S22.5 170 0 min 0 lux 0 W/m
21.12.2015 01:15 11,8 C 10,8 C 78 % 1018,0 hPa 0,0 l/m 17,4 km/h (3 Bft) S22.5 170 0 min 0 lux 0 W/m
21.12.2015 01:20 11,7 C 10,7 C 79 % 1018,0 hPa 0,0 l/m 17,4 km/h (3 Bft) S22.5 170 0 min 0 lux 0 W/m
21.12.2015 01:25 11,7 C 10,7 C 79 % 1018,0 hPa 0,0 l/m 17,4 km/h (3 Bft) S22.5 170 0 min 0 lux 0 W/m
21.12.2015 01:29 11,7 C 10,7 C 79 % 1018,0 hPa 0,0 l/m 17,4 km/h (3 Bft) S22.5 170 0 min 0 lux 0 W/m
21.12.2015 01:35 11,7 C 10,7 C 79 % 1018,0 hPa 0,0 l/m 17,4 km/h (3 Bft) S22.5 170 0 min 0 lux 0 W/m
21.12.2015 01:40 11,6 C 10,6 C 79 % 1018,0 hPa 0,0 l/m 17,4 km/h (3 Bft) S22.5 170 0 min 0 lux 0 W/m
21.12.2015 01:45 11,6 C 10,6 C 79 % 1018,0 hPa 0,0 l/m 17,4 km/h (3 Bft) S22.5 170 0 min 0 lux 0 W/m
21.12.2015 01:50 11,5 C 10,5 C 80 % 1018,0 hPa 0,0 l/m 23,0 km/h (4 Bft) SW45 230 0 min 0 lux 0 W/m
21.12.2015 01:55 11,4 C 10,5 C 80 % 1018,0 hPa 0,0 l/m 23,0 km/h (4 Bft) SW45 230 0 min 0 lux 0 W/m
21.12.2015 02:00 11,4 C 10,6 C 80 % 1018,0 hPa 0,0 l/m 23,0 km/h (4 Bft) SW45 230 0 min 200 klux 0 W/m
21.12.2015 02:05 11,4 C 10,5 C 81 % 1018,0 hPa 0,0 l/m 25,5 km/h (4 Bft) SW45 225 0 min 0 lux 0 W/m
21.12.2015 02:10 11,4 C 10,5 C 81 % 1018,0 hPa 0,0 l/m 25,5 km/h (4 Bft) SW45 225 0 min 0 lux 0 W/m
21.12.2015 02:15 11,4 C 10,5 C 81 % 1018,0 hPa 0,0 l/m 30,8 km/h (5 Bft) SW22.5 225 0 min 0 lux 0 W/m
21.12.2015 02:20 11,3 C 10,5 C 81 % 1018,0 hPa 0,0 l/m 27,8 km/h (5 Bft) SW67.5 225 0 min 0 lux 0 W/m
21.12.2015 02:25 11,3 C 10,5 C 81 % 1018,0 hPa 0,0 l/m 27,8 km/h (5 Bft) SW67.5 225 0 min 0 lux 0 W/m
21.12.2015 02:29 11,3 C 10,5 C 81 % 1018,0 hPa 0,0 l/m 33,2 km/h (5 Bft) SW45 215 0 min 0 lux 0 W/m
21.12.2015 02:35 11,3 C 10,5 C 81 % 1018,0 hPa 0,0 l/m 33,2 km/h (5 Bft) SW45 215 0 min 0 lux 0 W/m
21.12.2015 02:40 11,2 C 10,4 C 81 % 1019,0 hPa 0,0 l/m 33,2 km/h (5 Bft) SW45 215 0 min 0 lux 0 W/m
21.12.2015 02:45 11,2 C 10,4 C 82 % 1019,0 hPa 0,0 l/m 33,2 km/h (5 Bft) SW45 215 0 min 0 lux 0 W/m
21.12.2015 02:50 11,2 C 10,4 C 82 % 1019,0 hPa 0,0 l/m 33,2 km/h (5 Bft) SW45 215 0 min 0 lux 0 W/m
21.12.2015 02:55 11,1 C 10,4 C 83 % 1019,0 hPa 0,0 l/m 33,2 km/h (5 Bft) SW45 215 0 min 0 lux 0 W/m
21.12.2015 03:00 11,0 C 10,2 C 83 % 1019,0 hPa 0,0 l/m 32,2 km/h (5 Bft) SW67.5 225 0 min 0 lux 0 W/m
21.12.2015 03:05 11,0 C 10,2 C 83 % 1019,0 hPa 0,4 l/m 32,2 km/h (5 Bft) SW67.5 225 0 min 0 lux 0 W/m
21.12.2015 03:10 11,0 C 10,2 C 83 % 1019,0 hPa 0,0 l/m 32,2 km/h (5 Bft) SW67.5 225 0 min 0 lux 0 W/m
21.12.2015 03:15 10,8 C 10,2 C 85 % 1019,0 hPa 0,0 l/m 32,2 km/h (5 Bft) SW67.5 225 0 min 0 lux 0 W/m
21.12.2015 03:20 10,8 C 10,0 C 85 % 1019,0 hPa 0,0 l/m 55,3 km/h (7 Bft) SO22.5 145 0 min 137 lux 0 W/m
21.12.2015 03:24 10,7 C 10,0 C 85 % 1019,0 hPa 0,4 l/m 32,2 km/h (5 Bft) SW67.5 225 0 min 0 lux 0 W/m
21.12.2015 03:30 10,6 C 9,9 C 85 % 1019,0 hPa 0,0 l/m 32,2 km/h (5 Bft) SW67.5 225 0 min 0 lux 0 W/m
21.12.2015 03:35 10,6 C 9,9 C 85 % 1019,0 hPa 0,0 l/m 32,2 km/h (5 Bft) SW67.5 225 0 min 0 lux 0 W/m
21.12.2015 03:40 10,6 C 9,8 C 85 % 1019,0 hPa 0,0 l/m 21,1 km/h (4 Bft) S-SW22.5 205 0 min 0 lux 0 W/m
21.12.2015 03:45 10,5 C 9,7 C 85 % 1019,0 hPa 0,4 l/m 21,1 km/h (4 Bft) S-SW22.5 205 0 min 0 lux 0 W/m
21.12.2015 03:50 10,4 C 9,7 C 85 % 1019,0 hPa 0,0 l/m 21,1 km/h (4 Bft) S-SW22.5 205 0 min 0 lux 0 W/m
21.12.2015 03:54 10,4 C 9,7 C 85 % 1019,0 hPa 0,0 l/m 21,1 km/h (4 Bft) S-SW22.5 205 0 min 0 lux 0 W/m
21.12.2015 04:00 10,4 C 9,6 C 85 % 1019,0 hPa 0,0 l/m 21,1 km/h (4 Bft) S-SW22.5 205 0 min 0 lux 0 W/m
21.12.2015 04:05 10,4 C 9,6 C 85 % 1019,0 hPa 0,0 l/m 21,1 km/h (4 Bft) S-SW22.5 205 0 min 0 lux 0 W/m
21.12.2015 04:10 10,4 C 9,4 C 85 % 1019,0 hPa 0,4 l/m 21,1 km/h (4 Bft) S-SW22.5 205 0 min 0 lux 0 W/m
21.12.2015 04:15 10,4 C 9,3 C 85 % 1018,0 hPa 0,0 l/m 15,0 km/h (3 Bft) S22.5 190 0 min 0 lux 0 W/m
21.12.2015 04:19 10,3 C 9,3 C 85 % 1018,0 hPa 0,0 l/m 10,1 km/h (2 Bft) S22.5 175 0 min 0 lux 0 W/m
21.12.2015 04:25 10,2 C 9,3 C 85 % 1019,0 hPa 0,0 l/m 10,1 km/h (2 Bft) S22.5 175 0 min 0 lux 0 W/m
21.12.2015 04:30 10,2 C 9,2 C 85 % 1019,0 hPa 0,0 l/m 10,1 km/h (2 Bft) S22.5 175 0 min 0 lux 0 W/m
21.12.2015 04:35 10,2 C 9,2 C 85 % 1019,0 hPa 0,0 l/m 14,0 km/h (3 Bft) S22.5 170 0 min 0 lux 0 W/m
21.12.2015 04:40 10,1 C 9,1 C 85 % 1018,0 hPa 0,0 l/m 14,0 km/h (3 Bft) S22.5 170 0 min 100 lux 0 W/m
21.12.2015 04:45 10,1 C 9,2 C 86 % 1018,0 hPa 0,0 l/m 12,7 km/h (3 Bft) S-SO 155 0 min 0 lux 0 W/m
21.12.2015 04:50 10,1 C 9,2 C 86 % 1018,0 hPa 0,0 l/m 12,7 km/h (3 Bft) S-SO 155 0 min 0 lux 0 W/m
21.12.2015 04:54 10,0 C 9,2 C 86 % 1018,0 hPa 0,0 l/m 12,7 km/h (3 Bft) S-SO 155 0 min 0 lux 0 W/m
21.12.2015 05:00 10,0 C 9,2 C 86 % 1018,0 hPa 0,0 l/m 12,7 km/h (3 Bft) S-SO 155 0 min 0 lux 0 W/m
21.12.2015 05:05 10,0 C 9,1 C 86 % 1018,0 hPa 0,0 l/m 12,7 km/h (3 Bft) S-SO 155 0 min 0 lux 0 W/m
21.12.2015 05:10 10,0 C 9,1 C 86 % 1018,0 hPa 0,0 l/m 12,7 km/h (3 Bft) S-SO 155 0 min 0 lux 0 W/m
21.12.2015 05:15 10,0 C 9,0 C 85 % 1018,0 hPa 0,0 l/m 12,7 km/h (3 Bft) S-SO 155 0 min 0 lux 0 W/m
21.12.2015 05:19 10,0 C 8,9 C 85 % 1018,0 hPa 0,0 l/m 12,7 km/h (3 Bft) S-SO 155 0 min 0 lux 0 W/m
21.12.2015 05:25 10,0 C 9,0 C 84 % 1018,0 hPa 0,0 l/m 12,7 km/h (3 Bft) S-SO 155 0 min 0 lux 0 W/m
21.12.2015 05:30 10,0 C 9,1 C 84 % 1018,0 hPa 0,0 l/m 12,7 km/h (3 Bft) S-SO 155 0 min 0 lux 0 W/m
21.12.2015 05:35 10,0 C 9,2 C 84 % 1018,0 hPa 0,0 l/m 12,7 km/h (3 Bft) S-SO 155 0 min 0 lux 0 W/m
21.12.2015 05:40 10,1 C 9,1 C 83 % 1019,0 hPa 0,0 l/m 12,7 km/h (3 Bft) S-SO 155 0 min 0 lux 0 W/m
21.12.2015 05:45 10,1 C 9,0 C 82 % 1019,0 hPa 0,0 l/m 12,7 km/h (3 Bft) S-SO 155 0 min 0 lux 0 W/m
21.12.2015 05:50 10,1 C 8,8 C 82 % 1019,0 hPa 0,0 l/m 12,7 km/h (3 Bft) S-SO 155 0 min 0 lux 0 W/m
21.12.2015 05:55 10,1 C 8,7 C 81 % 1019,0 hPa 0,0 l/m 19,5 km/h (3 Bft) SW22.5 225 0 min 0 lux 0 W/m
21.12.2015 06:00 10,1 C 8,6 C 81 % 1019,0 hPa 0,0 l/m 19,5 km/h (3 Bft) SW22.5 225 0 min 0 lux 0 W/m
21.12.2015 06:05 10,0 C 8,6 C 81 % 1019,0 hPa 0,0 l/m 19,5 km/h (3 Bft) SW22.5 225 0 min 0 lux 0 W/m
21.12.2015 06:10 10,0 C 8,7 C 81 % 1019,0 hPa 0,0 l/m 19,5 km/h (3 Bft) SW22.5 225 0 min 0 lux 0 W/m
21.12.2015 06:15 10,0 C 8,8 C 80 % 1019,0 hPa 0,0 l/m 19,5 km/h (3 Bft) SW22.5 225 0 min 0 lux 0 W/m
21.12.2015 06:20 10,2 C 8,8 C 80 % 1019,0 hPa 0,0 l/m 19,5 km/h (3 Bft) SW22.5 225 0 min 0 lux 0 W/m
21.12.2015 06:25 10,2 C 8,8 C 80 % 1019,0 hPa 0,0 l/m 19,5 km/h (3 Bft) SW22.5 225 0 min 0 lux 0 W/m
21.12.2015 06:30 10,2 C 8,8 C 80 % 1019,0 hPa 0,0 l/m 19,5 km/h (3 Bft) SW22.5 225 0 min 0 lux 0 W/m
21.12.2015 06:35 10,2 C 8,9 C 80 % 1019,0 hPa 0,0 l/m 19,5 km/h (3 Bft) SW22.5 225 0 min 0 lux 0 W/m
21.12.2015 06:40 10,3 C 9,1 C 79 % 1019,0 hPa 0,0 l/m 19,5 km/h (3 Bft) SW22.5 225 0 min 0 lux 0 W/m
21.12.2015 06:45 10,2 C 9,1 C 80 % 1019,0 hPa 0,0 l/m 19,5 km/h (3 Bft) SW22.5 225 0 min 0 lux 0 W/m
21.12.2015 06:49 10,2 C 9,2 C 80 % 1019,0 hPa 0,0 l/m 19,5 km/h (3 Bft) SW22.5 225 0 min 0 lux 0 W/m
21.12.2015 06:55 10,2 C 9,1 C 80 % 1019,0 hPa 0,0 l/m 19,5 km/h (3 Bft) SW22.5 225 0 min 0 lux 0 W/m
21.12.2015 07:00 10,2 C 9,2 C 80 % 1019,0 hPa 0,0 l/m 19,5 km/h (3 Bft) SW22.5 225 0 min 0 lux 0 W/m
21.12.2015 07:05 10,3 C 9,2 C 79 % 1019,0 hPa 0,0 l/m 19,5 km/h (3 Bft) SW22.5 225 0 min 0 lux 0 W/m
21.12.2015 07:10 10,2 C 9,0 C 79 % 1019,0 hPa 0,0 l/m 24,7 km/h (4 Bft) SW45 220 0 min 0 lux 0 W/m
21.12.2015 07:14 10,1 C 8,8 C 79 % 1019,0 hPa 0,0 l/m 30,5 km/h (5 Bft) SW67.5 220 0 min 0 lux 0 W/m
21.12.2015 07:20 10,0 C 8,6 C 80 % 1019,0 hPa 0,0 l/m 30,5 km/h (5 Bft) SW67.5 220 0 min 0 lux 0 W/m
21.12.2015 07:25 10,0 C 8,6 C 80 % 1020,0 hPa 0,0 l/m 27,3 km/h (5 Bft) SW45 225 0 min 0 lux 0 W/m
21.12.2015 07:30 10,0 C 8,7 C 80 % 1019,0 hPa 0,0 l/m 27,3 km/h (5 Bft) SW45 225 0 min 0 lux 0 W/m
21.12.2015 07:35 10,0 C 8,5 C 80 % 1019,0 hPa 0,0 l/m 27,3 km/h (5 Bft) SW45 225 0 min 0 lux 0 W/m
21.12.2015 07:40 10,0 C 8,3 C 80 % 1019,0 hPa 0,0 l/m 22,8 km/h (4 Bft) SW45 220 0 min 0 lux 0 W/m
21.12.2015 07:45 10,0 C 8,5 C 80 % 1019,0 hPa 0,0 l/m 22,8 km/h (4 Bft) SW45 220 0 min 0 lux 0 W/m
21.12.2015 07:50 10,0 C 8,4 C 80 % 1019,0 hPa 0,0 l/m 22,8 km/h (4 Bft) SW45 220 0 min 0 lux 0 W/m
21.12.2015 07:55 9,8 C 8,1 C 80 % 1019,0 hPa 0,0 l/m 26,2 km/h (4 Bft) SW45 220 0 min 0 lux 0 W/m
21.12.2015 08:00 9,8 C 8,0 C 80 % 1019,0 hPa 0,0 l/m 28,1 km/h (5 Bft) S-SW67.5 210 0 min 0 lux 0 W/m
21.12.2015 08:05 9,8 C 7,8 C 81 % 1019,0 hPa 0,0 l/m 23,5 km/h (4 Bft) SW45 215 0 min 0 lux 0 W/m
21.12.2015 08:10 9,8 C 7,7 C 80 % 1019,0 hPa 0,0 l/m 27,7 km/h (5 Bft) SW22.5 215 0 min 41 lux 0 W/m
21.12.2015 08:15 9,8 C 7,6 C 80 % 1019,0 hPa 0,0 l/m 22,8 km/h (4 Bft) S-SW45 205 0 min 89 lux 0 W/m
21.12.2015 08:20 9,8 C 7,5 C 80 % 1019,0 hPa 0,0 l/m 22,8 km/h (4 Bft) S-SW45 205 0 min 89 lux 0 W/m
21.12.2015 08:25 9,8 C 7,6 C 80 % 1019,0 hPa 0,0 l/m 22,8 km/h (4 Bft) S-SW45 205 0 min 166 lux 0 W/m
21.12.2015 08:30 9,8 C 7,5 C 80 % 1019,0 hPa 0,0 l/m 22,8 km/h (4 Bft) S-SW45 205 0 min 345 lux 0 W/m
21.12.2015 08:35 9,8 C 7,5 C 80 % 1019,0 hPa 0,0 l/m 22,8 km/h (4 Bft) S-SW45 205 0 min 435 lux 0 W/m
21.12.2015 08:40 9,8 C 7,5 C 80 % 1019,0 hPa 0,0 l/m 29,1 km/h (5 Bft) S-SW45 210 0 min 649 lux 0 W/m
21.12.2015 08:44 9,8 C 7,5 C 80 % 1019,0 hPa 0,0 l/m 29,1 km/h (5 Bft) S-SW45 210 0 min 893 lux 6 W/m
21.12.2015 08:50 9,8 C 7,4 C 79 % 1019,0 hPa 0,0 l/m 29,1 km/h (5 Bft) S-SW45 210 0 min 1,17 klux 8 W/m
21.12.2015 08:55 9,7 C 7,7 C 80 % 1020,0 hPa 0,0 l/m 29,1 km/h (5 Bft) S-SW45 210 0 min 1,46 klux 10 W/m
21.12.2015 09:00 9,6 C 7,6 C 80 % 1020,0 hPa 0,0 l/m 29,1 km/h (5 Bft) S-SW45 210 0 min 2,14 klux 15 W/m
21.12.2015 09:05 9,6 C 7,7 C 80 % 1020,0 hPa 0,0 l/m 29,1 km/h (5 Bft) S-SW45 210 0 min 2,87 klux 20 W/m
21.12.2015 09:09 9,6 C 7,8 C 80 % 1020,0 hPa 0,0 l/m 29,1 km/h (5 Bft) S-SW45 210 0 min 3,28 klux 22 W/m
21.12.2015 09:15 9,6 C 8,1 C 80 % 1020,0 hPa 0,0 l/m 29,1 km/h (5 Bft) S-SW45 210 6 min 6,71 klux 46 W/m
21.12.2015 09:20 9,6 C 8,2 C 80 % 1020,0 hPa 0,0 l/m 29,1 km/h (5 Bft) S-SW45 210 0 min 3,32 klux 23 W/m
21.12.2015 09:25 9,6 C 8,7 C 80 % 1020,0 hPa 0,0 l/m 29,1 km/h (5 Bft) S-SW45 210 5 min 9,2 klux 63 W/m
21.12.2015 09:30 9,7 C 9,3 C 80 % 1020,0 hPa 0,0 l/m 30,8 km/h (5 Bft) S-SW45 205 0 min 7,01 klux 48 W/m
21.12.2015 09:35 9,8 C 9,4 C 80 % 1020,0 hPa 0,0 l/m 30,8 km/h (5 Bft) S-SW45 205 0 min 5,65 klux 39 W/m
21.12.2015 09:39 9,8 C 9,2 C 79 % 1020,0 hPa 0,0 l/m 30,8 km/h (5 Bft) S-SW45 205 0 min 5,65 klux 39 W/m
21.12.2015 09:45 9,8 C 9,0 C 79 % 1020,0 hPa 0,0 l/m 30,8 km/h (5 Bft) S-SW45 205 0 min 3,82 klux 26 W/m
21.12.2015 09:50 10,0 C 9,0 C 79 % 1020,0 hPa 0,0 l/m 30,8 km/h (5 Bft) S-SW45 205 0 min 4,93 klux 34 W/m
21.12.2015 09:55 10,0 C 9,4 C 79 % 1020,0 hPa 0,0 l/m 30,8 km/h (5 Bft) S-SW45 205 0 min 6,52 klux 45 W/m
21.12.2015 10:00 10,0 C 9,8 C 79 % 1020,0 hPa 0,0 l/m 30,8 km/h (5 Bft) S-SW45 205 5 min 200 klux 1368 W/m
21.12.2015 10:04 10,0 C 11,3 C 79 % 1020,0 hPa 0,0 l/m 30,8 km/h (5 Bft) S-SW45 205 4 min 20,9 klux 143 W/m
21.12.2015 10:10 10,0 C 11,7 C 79 % 1020,0 hPa 0,0 l/m 30,1 km/h (5 Bft) SW45 215 6 min 22,7 klux 155 W/m
21.12.2015 10:15 10,1 C 12,0 C 79 % 1020,0 hPa 0,0 l/m 31,7 km/h (5 Bft) SW67.5 230 5 min 23,3 klux 159 W/m
21.12.2015 10:20 10,2 C 12,4 C 78 % 1020,0 hPa 0,0 l/m 31,7 km/h (5 Bft) SW67.5 230 5 min 23,7 klux 162 W/m
21.12.2015 10:25 10,4 C 12,5 C 78 % 1020,0 hPa 0,0 l/m 31,7 km/h (5 Bft) SW67.5 230 5 min 23,5 klux 161 W/m
21.12.2015 10:30 10,4 C 12,0 C 78 % 1020,0 hPa 0,0 l/m 31,7 km/h (5 Bft) SW67.5 230 5 min 26,0 klux 178 W/m
21.12.2015 10:35 10,4 C 12,6 C 78 % 1020,0 hPa 0,0 l/m 31,7 km/h (5 Bft) SW67.5 230 5 min 27,3 klux 187 W/m
21.12.2015 10:40 10,6 C 13,2 C 78 % 1020,0 hPa 0,0 l/m 25,9 km/h (4 Bft) SW45 220 5 min 27,6 klux 189 W/m
21.12.2015 10:45 10,6 C 13,7 C 77 % 1020,0 hPa 0,0 l/m 25,9 km/h (4 Bft) S-SW67.5 205 5 min 29,5 klux 202 W/m
21.12.2015 10:50 10,8 C 14,0 C 77 % 1020,0 hPa 0,0 l/m 31,4 km/h (5 Bft) SW67.5 235 5 min 30,3 klux 207 W/m
21.12.2015 10:55 10,8 C 13,7 C 77 % 1020,0 hPa 0,0 l/m 31,4 km/h (5 Bft) SW67.5 235 0 min 15,0 klux 103 W/m
21.12.2015 11:00 10,8 C 13,6 C 76 % 1020,0 hPa 0,0 l/m 25,3 km/h (4 Bft) SW45 220 5 min 32,2 klux 220 W/m
21.12.2015 11:05 10,8 C 13,0 C 76 % 1020,0 hPa 0,0 l/m 25,3 km/h (4 Bft) SW45 220 5 min 28,6 klux 196 W/m
21.12.2015 11:10 10,8 C 12,1 C 76 % 1020,0 hPa 0,0 l/m 40,6 km/h (6 Bft) SW45 215 0 min 12,5 klux 86 W/m
21.12.2015 11:15 10,7 C 11,9 C 76 % 1020,0 hPa 0,0 l/m 41,7 km/h (6 Bft) SW67.5 215 0 min 16,6 klux 114 W/m
21.12.2015 11:20 10,8 C 12,6 C 76 % 1020,0 hPa 0,0 l/m 45,3 km/h (6 Bft) SW45 220 5 min 38,2 klux 261 W/m
21.12.2015 11:25 11,1 C 13,5 C 76 % 1020,0 hPa 0,0 l/m 37,5 km/h (5 Bft) SW45 225 0 min 18,1 klux 124 W/m
21.12.2015 11:30 11,1 C 13,4 C 75 % 1020,0 hPa 0,0 l/m 37,3 km/h (5 Bft) SW45 215 0 min 17,6 klux 120 W/m
21.12.2015 11:34 11,1 C 12,3 C 75 % 1020,0 hPa 0,0 l/m 39,0 km/h (6 Bft) SW67.5 220 0 min 7,43 klux 51 W/m
21.12.2015 11:40 10,9 C 11,8 C 76 % 1020,0 hPa 0,0 l/m 27,0 km/h (5 Bft) SW45 230 0 min 7,09 klux 48 W/m
21.12.2015 11:45 10,9 C 11,5 C 76 % 1020,0 hPa 0,0 l/m 27,0 km/h (5 Bft) SW45 230 0 min 7,90 klux 54 W/m
21.12.2015 11:50 10,9 C 11,4 C 76 % 1020,0 hPa 0,0 l/m 27,0 km/h (5 Bft) SW45 230 0 min 9,4 klux 64 W/m
21.12.2015 11:55 11,0 C 11,7 C 76 % 1019,0 hPa 0,0 l/m 34,7 km/h (5 Bft) S-SW67.5 210 0 min 8,89 klux 61 W/m
21.12.2015 12:00 11,0 C 12,3 C 76 % 1019,0 hPa 0,0 l/m 34,7 km/h (5 Bft) S-SW67.5 210 0 min 16,7 klux 114 W/m
21.12.2015 12:05 11,0 C 12,3 C 76 % 1019,0 hPa 0,0 l/m 34,7 km/h (5 Bft) S-SW67.5 210 0 min 7,01 klux 48 W/m
21.12.2015 12:10 11,1 C 11,9 C 75 % 1019,0 hPa 0,0 l/m 34,9 km/h (5 Bft) SW67.5 215 0 min 5,76 klux 39 W/m
21.12.2015 12:15 11,0 C 11,3 C 74 % 1019,0 hPa 0,0 l/m 34,9 km/h (5 Bft) SW67.5 215 0 min 5,72 klux 39 W/m
21.12.2015 12:20 10,9 C 11,2 C 75 % 1019,0 hPa 0,0 l/m 34,9 km/h (5 Bft) SW67.5 215 0 min 8,71 klux 60 W/m
21.12.2015 12:24 10,9 C 11,1 C 75 % 1019,0 hPa 0,0 l/m 34,9 km/h (5 Bft) SW67.5 215 0 min 7,48 klux 51 W/m
21.12.2015 12:30 10,9 C 11,3 C 75 % 1019,0 hPa 0,0 l/m 34,9 km/h (5 Bft) SW67.5 215 0 min 5,18 klux 35 W/m
21.12.2015 12:35 10,9 C 11,3 C 75 % 1019,0 hPa 0,0 l/m 36,8 km/h (5 Bft) SW67.5 235 0 min 7,49 klux 51 W/m
21.12.2015 12:40 11,0 C 11,5 C 74 % 1019,0 hPa 0,0 l/m 37,4 km/h (5 Bft) SW45 230 0 min 500 lux 3 W/m
21.12.2015 12:45 11,1 C 11,8 C 73 % 1019,0 hPa 0,0 l/m 40,7 km/h (6 Bft) SW45 235 0 min 8,10 klux 55 W/m
21.12.2015 12:50 11,1 C 11,7 C 73 % 1019,0 hPa 0,0 l/m 32,0 km/h (5 Bft) SW67.5 225 0 min 9,3 klux 64 W/m
21.12.2015 12:55 11,1 C 11,6 C 73 % 1019,0 hPa 0,0 l/m 35,0 km/h (5 Bft) SW67.5 230 0 min 7,28 klux 50 W/m
21.12.2015 13:00 11,2 C 11,8 C 71 % 1019,0 hPa 0,0 l/m 40,7 km/h (6 Bft) SW45 225 0 min 16,4 klux 112 W/m
21.12.2015 13:05 11,2 C 12,9 C 71 % 1019,0 hPa 0,0 l/m 36,4 km/h (5 Bft) SW45 225 5 min 23,4 klux 160 W/m
21.12.2015 13:10 11,2 C 12,8 C 71 % 1019,0 hPa 0,0 l/m 27,1 km/h (5 Bft) SW45 220 0 min 12,8 klux 88 W/m
21.12.2015 13:15 11,2 C 12,5 C 72 % 1019,0 hPa 0,0 l/m 35,8 km/h (5 Bft) SW67.5 215 0 min 9,6 klux 65 W/m
21.12.2015 13:19 11,2 C 12,2 C 72 % 1019,0 hPa 0,0 l/m 39,2 km/h (6 Bft) SW45 225 0 min 9,6 klux 65 W/m
21.12.2015 13:25 11,1 C 12,0 C 70 % 1019,0 hPa 0,0 l/m 37,2 km/h (5 Bft) SW45 230 0 min 7,78 klux 53 W/m
21.12.2015 13:30 11,2 C 11,9 C 70 % 1019,0 hPa 0,0 l/m 37,4 km/h (5 Bft) SW67.5 220 0 min 7,21 klux 49 W/m
21.12.2015 13:35 11,1 C 11,8 C 71 % 1019,0 hPa 0,0 l/m 37,4 km/h (5 Bft) SW67.5 220 0 min 7,21 klux 49 W/m
21.12.2015 13:40 11,1 C 11,8 C 71 % 1019,0 hPa 0,0 l/m 37,4 km/h (5 Bft) SW67.5 220 0 min 7,68 klux 53 W/m
21.12.2015 13:45 11,1 C 11,8 C 72 % 1019,0 hPa 0,0 l/m 30,1 km/h (5 Bft) SW45 225 0 min 6,88 klux 47 W/m
21.12.2015 13:50 11,1 C 11,7 C 72 % 1018,0 hPa 0,0 l/m 31,7 km/h (5 Bft) SW45 225 0 min 6,02 klux 41 W/m
21.12.2015 13:54 11,0 C 11,7 C 71 % 1018,0 hPa 0,0 l/m 36,3 km/h (5 Bft) SW67.5 220 0 min 7,60 klux 52 W/m
21.12.2015 14:00 11,0 C 11,7 C 71 % 1018,0 hPa 0,0 l/m 36,3 km/h (5 Bft) SW67.5 220 6 min 47,5 klux 325 W/m
21.12.2015 14:05 11,1 C 11,4 C 71 % 1018,0 hPa 0,0 l/m 31,0 km/h (5 Bft) S-SW67.5 210 0 min 3,14 klux 21 W/m
21.12.2015 14:10 11,1 C 11,3 C 71 % 1018,0 hPa 0,0 l/m 39,0 km/h (6 Bft) SW67.5 220 0 min 3,02 klux 21 W/m
21.12.2015 14:15 11,1 C 11,5 C 71 % 1018,0 hPa 0,0 l/m 38,1 km/h (6 Bft) SW45 225 0 min 5,84 klux 40 W/m
21.12.2015 14:20 11,1 C 11,5 C 71 % 1019,0 hPa 0,0 l/m 38,1 km/h (6 Bft) SW45 225 0 min 3,74 klux 26 W/m
21.12.2015 14:25 11,1 C 11,4 C 71 % 1019,0 hPa 0,0 l/m 36,2 km/h (5 Bft) W-SW67.5 245 0 min 3,74 klux 26 W/m
21.12.2015 14:30 11,1 C 11,5 C 71 % 1019,0 hPa 0,0 l/m 28,5 km/h (5 Bft) SW67.5 220 0 min 3,49 klux 24 W/m
21.12.2015 14:35 11,1 C 11,4 C 71 % 1018,0 hPa 0,0 l/m 37,2 km/h (5 Bft) SW67.5 230 0 min 4,09 klux 28 W/m
21.12.2015 14:40 11,1 C 11,4 C 71 % 1018,0 hPa 0,0 l/m 35,2 km/h (5 Bft) SW45 225 0 min 3,79 klux 26 W/m
21.12.2015 14:45 11,1 C 11,5 C 71 % 1019,0 hPa 0,0 l/m 28,3 km/h (5 Bft) SW45 230 0 min 4,70 klux 32 W/m
21.12.2015 14:50 11,1 C 11,4 C 71 % 1019,0 hPa 0,0 l/m 28,3 km/h (5 Bft) SW45 230 0 min 3,70 klux 25 W/m
21.12.2015 14:55 11,2 C 11,4 C 70 % 1018,0 hPa 0,0 l/m 42,9 km/h (6 Bft) SW45 225 0 min 3,47 klux 24 W/m
21.12.2015 15:00 11,3 C 11,4 C 69 % 1018,0 hPa 0,0 l/m 40,4 km/h (6 Bft) SW67.5 215 0 min 2,44 klux 17 W/m
21.12.2015 15:05 11,2 C 11,2 C 70 % 1018,0 hPa 0,0 l/m 35,4 km/h (5 Bft) SW67.5 230 0 min 1,27 klux 9 W/m
21.12.2015 15:09 11,2 C 11,1 C 70 % 1018,0 hPa 0,0 l/m 39,0 km/h (6 Bft) SW67.5 225 0 min 1,28 klux 9 W/m
21.12.2015 15:15 11,1 C 10,8 C 71 % 1018,0 hPa 0,0 l/m 38,2 km/h (6 Bft) SW67.5 220 0 min 1,90 klux 13 W/m
21.12.2015 15:20 11,1 C 10,9 C 71 % 1018,0 hPa 0,0 l/m 29,8 km/h (5 Bft) SW67.5 225 0 min 5,65 klux 39 W/m
21.12.2015 15:25 11,1 C 11,0 C 71 % 1018,0 hPa 0,0 l/m 45,1 km/h (6 Bft) SW45 225 0 min 1,89 klux 13 W/m
21.12.2015 15:30 11,1 C 11,1 C 71 % 1018,0 hPa 0,0 l/m 35,8 km/h (5 Bft) SW67.5 225 0 min 1,82 klux 12 W/m
21.12.2015 15:35 11,1 C 11,2 C 71 % 1019,0 hPa 0,0 l/m 36,1 km/h (5 Bft) SW67.5 220 0 min 3,15 klux 22 W/m
21.12.2015 15:39 11,2 C 11,1 C 71 % 1019,0 hPa 0,0 l/m 33,9 km/h (5 Bft) SW45 235 0 min 2,68 klux 18 W/m
21.12.2015 15:45 11,2 C 10,9 C 70 % 1018,0 hPa 0,0 l/m 38,6 km/h (6 Bft) S-SW45 205 0 min 1,35 klux 9 W/m
21.12.2015 15:50 11,1 C 10,9 C 71 % 1018,0 hPa 0,0 l/m 35,5 km/h (5 Bft) SW22.5 230 0 min 1,69 klux 12 W/m
21.12.2015 15:55 11,1 C 10,8 C 71 % 1018,0 hPa 0,0 l/m 34,4 km/h (5 Bft) SW45 225 0 min 1,27 klux 9 W/m
21.12.2015 16:00 11,2 C 10,8 C 71 % 1018,0 hPa 0,0 l/m 35,0 km/h (5 Bft) SW45 220 0 min 1,18 klux 8 W/m
21.12.2015 16:04 11,3 C 11,1 C 69 % 1018,0 hPa 0,0 l/m 43,2 km/h (6 Bft) SW45 215 0 min 1,24 klux 8 W/m
21.12.2015 16:10 11,3 C 11,0 C 69 % 1018,0 hPa 0,0 l/m 36,5 km/h (5 Bft) SW67.5 220 0 min 921 lux 6 W/m
21.12.2015 16:15 11,2 C 10,9 C 70 % 1018,0 hPa 0,0 l/m 34,8 km/h (5 Bft) SW67.5 215 0 min 581 lux 4 W/m
21.12.2015 16:20 11,2 C 10,9 C 71 % 1018,0 hPa 0,0 l/m 40,3 km/h (6 Bft) SW67.5 215 0 min 510 lux 0 W/m
21.12.2015 16:25 11,2 C 10,9 C 71 % 1018,0 hPa 0,0 l/m 41,2 km/h (6 Bft) SW67.5 220 0 min 391 lux 0 W/m
21.12.2015 16:30 11,2 C 10,9 C 71 % 1018,0 hPa 0,0 l/m 39,7 km/h (6 Bft) SW45 220 0 min 248 lux 0 W/m
21.12.2015 16:34 11,2 C 10,9 C 71 % 1018,0 hPa 0,0 l/m 33,1 km/h (5 Bft) SW67.5 215 0 min 159 lux 0 W/m
21.12.2015 16:40 11,3 C 10,8 C 71 % 1018,0 hPa 0,0 l/m 39,6 km/h (6 Bft) SW67.5 220 0 min 6,11 klux 0 W/m
21.12.2015 16:45 11,2 C 10,5 C 71 % 1018,0 hPa 0,0 l/m 35,5 km/h (5 Bft) SW45 220 0 min 105 lux 0 W/m
21.12.2015 16:50 11,1 C 10,3 C 71 % 1018,0 hPa 0,0 l/m 31,8 km/h (5 Bft) SW45 215 0 min 52 lux 0 W/m
21.12.2015 16:55 11,1 C 10,3 C 71 % 1018,0 hPa 0,0 l/m 36,1 km/h (5 Bft) SW67.5 220 0 min 24 lux 0 W/m
21.12.2015 17:00 11,1 C 10,5 C 71 % 1018,0 hPa 0,0 l/m 38,2 km/h (6 Bft) SW67.5 225 0 min 11 lux 0 W/m
21.12.2015 17:05 11,1 C 10,5 C 71 % 1018,0 hPa 0,0 l/m 36,8 km/h (5 Bft) SW67.5 230 0 min 5 lux 0 W/m
21.12.2015 17:10 11,1 C 10,6 C 71 % 1018,0 hPa 0,0 l/m 32,4 km/h (5 Bft) SW67.5 220 0 min 1 lux 0 W/m
21.12.2015 17:15 11,2 C 10,7 C 71 % 1018,0 hPa 0,0 l/m 41,8 km/h (6 Bft) SW67.5 220 0 min 0 lux 0 W/m
21.12.2015 17:20 11,2 C 10,8 C 71 % 1018,0 hPa 0,0 l/m 37,5 km/h (5 Bft) S-SW45 210 0 min 0 lux 0 W/m
21.12.2015 17:25 11,3 C 11,0 C 71 % 1018,0 hPa 0,0 l/m 43,8 km/h (6 Bft) SW67.5 220 0 min 0 lux 0 W/m
21.12.2015 17:30 11,3 C 11,1 C 71 % 1018,0 hPa 0,0 l/m 37,2 km/h (5 Bft) SW45 220 0 min 0 lux 0 W/m
21.12.2015 17:35 11,3 C 11,0 C 71 % 1018,0 hPa 0,0 l/m 33,6 km/h (5 Bft) SW67.5 215 0 min 0 lux 0 W/m
21.12.2015 17:40 11,3 C 11,0 C 72 % 1018,0 hPa 0,0 l/m 38,8 km/h (6 Bft) SW45 215 0 min 0 lux 0 W/m
21.12.2015 17:45 11,2 C 10,2 C 73 % 1018,0 hPa 0,0 l/m 38,8 km/h (6 Bft) SW45 215 0 min 0 lux 0 W/m
21.12.2015 17:50 11,0 C 9,8 C 74 % 1018,0 hPa 0,0 l/m 36,6 km/h (5 Bft) SW45 220 0 min 0 lux 0 W/m
21.12.2015 17:55 10,8 C 9,6 C 75 % 1018,0 hPa 0,0 l/m 36,6 km/h (5 Bft) SW45 220 0 min 0 lux 0 W/m
21.12.2015 18:00 10,7 C 9,5 C 76 % 1018,0 hPa 0,0 l/m 36,6 km/h (5 Bft) SW45 220 0 min 1,53 klux 0 W/m
21.12.2015 18:05 10,7 C 9,3 C 76 % 1018,0 hPa 0,0 l/m 27,8 km/h (5 Bft) SW22.5 215 0 min 0 lux 0 W/m
21.12.2015 18:10 10,7 C 9,4 C 76 % 1018,0 hPa 0,0 l/m 29,6 km/h (5 Bft) SW45 225 0 min 0 lux 0 W/m
21.12.2015 18:15 10,7 C 9,4 C 76 % 1018,0 hPa 0,0 l/m 29,6 km/h (5 Bft) SW45 225 0 min 0 lux 0 W/m
21.12.2015 18:19 10,6 C 9,3 C 75 % 1018,0 hPa 0,0 l/m 29,6 km/h (5 Bft) SW45 225 0 min 0 lux 0 W/m
21.12.2015 18:25 10,7 C 9,3 C 76 % 1018,0 hPa 0,0 l/m 29,6 km/h (5 Bft) SW45 225 0 min 0 lux 0 W/m
21.12.2015 18:30 10,7 C 9,2 C 75 % 1018,0 hPa 0,0 l/m 29,6 km/h (5 Bft) SW45 225 0 min 0 lux 0 W/m
21.12.2015 18:35 10,8 C 9,5 C 74 % 1018,0 hPa 0,0 l/m 30,4 km/h (5 Bft) S-SW22.5 205 0 min 0 lux 0 W/m
21.12.2015 18:40 10,9 C 9,4 C 74 % 1018,0 hPa 0,0 l/m 30,4 km/h (5 Bft) S-SW22.5 205 0 min 0 lux 0 W/m
21.12.2015 18:45 10,8 C 9,3 C 75 % 1018,0 hPa 0,0 l/m 30,4 km/h (5 Bft) S-SW22.5 205 0 min 0 lux 0 W/m
21.12.2015 18:49 10,8 C 9,4 C 74 % 1018,0 hPa 0,0 l/m 29,7 km/h (5 Bft) S-SW45 210 0 min 0 lux 0 W/m
21.12.2015 18:55 10,8 C 9,7 C 74 % 1018,0 hPa 0,0 l/m 29,7 km/h (5 Bft) S-SW45 210 0 min 0 lux 0 W/m
21.12.2015 19:00 10,8 C 9,8 C 74 % 1018,0 hPa 0,0 l/m 31,7 km/h (5 Bft) S-SW45 210 0 min 0 lux 0 W/m
21.12.2015 19:05 11,0 C 10,4 C 73 % 1018,0 hPa 0,0 l/m 31,7 km/h (5 Bft) S-SW45 210 0 min 0 lux 0 W/m
21.12.2015 19:10 11,1 C 10,6 C 73 % 1018,0 hPa 0,0 l/m 31,7 km/h (5 Bft) S-SW45 210 0 min 0 lux 0 W/m
21.12.2015 19:15 11,1 C 10,7 C 73 % 1018,0 hPa 0,0 l/m 31,7 km/h (5 Bft) S-SW45 210 0 min 0 lux 0 W/m
21.12.2015 19:20 11,1 C 10,7 C 73 % 1017,0 hPa 0,0 l/m 31,7 km/h (5 Bft) S-SW45 210 0 min 200 klux 0 W/m
21.12.2015 19:25 11,2 C 10,9 C 72 % 1017,0 hPa 0,0 l/m 31,7 km/h (5 Bft) S-SW45 210 0 min 0 lux 0 W/m
21.12.2015 19:30 11,4 C 11,1 C 72 % 1018,0 hPa 0,0 l/m 43,6 km/h (6 Bft) SW45 220 0 min 0 lux 0 W/m
21.12.2015 19:35 11,4 C 11,1 C 72 % 1018,0 hPa 0,0 l/m 43,6 km/h (6 Bft) SW45 220 0 min 0 lux 0 W/m
21.12.2015 19:39 11,4 C 11,1 C 72 % 1018,0 hPa 0,0 l/m 47,0 km/h (6 Bft) SW45 225 0 min 0 lux 0 W/m
21.12.2015 19:45 11,4 C 11,2 C 72 % 1018,0 hPa 0,0 l/m 47,0 km/h (6 Bft) SW45 225 0 min 0 lux 0 W/m
21.12.2015 19:50 11,3 C 11,2 C 73 % 1018,0 hPa 0,0 l/m 47,0 km/h (6 Bft) SW45 225 0 min 0 lux 0 W/m
21.12.2015 19:55 11,2 C 11,1 C 74 % 1018,0 hPa 0,0 l/m 47,0 km/h (6 Bft) SW45 225 0 min 0 lux 0 W/m
21.12.2015 20:00 11,2 C 10,6 C 74 % 1018,0 hPa 0,0 l/m 48,3 km/h (6 Bft) SW22.5 225 0 min 0 lux 0 W/m
21.12.2015 20:04 11,2 C 10,0 C 74 % 1018,0 hPa 0,0 l/m 48,3 km/h (6 Bft) SW22.5 225 0 min 0 lux 0 W/m
21.12.2015 20:10 10,5 C 9,9 C 79 % 1018,0 hPa 0,4 l/m 44,5 km/h (6 Bft) SW45 235 0 min 0 lux 0 W/m
21.12.2015 20:15 10,4 C 9,7 C 80 % 1018,0 hPa 0,0 l/m 44,5 km/h (6 Bft) SW45 235 0 min 0 lux 0 W/m
21.12.2015 20:20 10,3 C 9,7 C 80 % 1018,0 hPa 0,0 l/m 44,5 km/h (6 Bft) SW45 235 0 min 0 lux 0 W/m
21.12.2015 20:25 10,4 C 9,7 C 80 % 1018,0 hPa 0,0 l/m 44,5 km/h (6 Bft) SW45 235 0 min 0 lux 0 W/m
21.12.2015 20:30 10,4 C 9,7 C 80 % 1018,0 hPa 0,0 l/m 44,5 km/h (6 Bft) SW45 235 0 min 0 lux 0 W/m
21.12.2015 20:34 10,4 C 9,7 C 80 % 1018,0 hPa 0,0 l/m 44,5 km/h (6 Bft) SW45 235 0 min 0 lux 0 W/m
21.12.2015 20:40 10,4 C 9,7 C 80 % 1018,0 hPa 0,0 l/m 44,0 km/h (6 Bft) O-SO22.5 110 0 min 200 klux 0 W/m
21.12.2015 20:45 10,4 C 9,8 C 82 % 1018,0 hPa 0,0 l/m 44,5 km/h (6 Bft) SW45 235 0 min 0 lux 0 W/m
21.12.2015 20:50 10,4 C 9,8 C 82 % 1018,0 hPa 0,0 l/m 44,5 km/h (6 Bft) SW45 235 0 min 0 lux 0 W/m
21.12.2015 20:55 10,4 C 9,8 C 82 % 1018,0 hPa 0,0 l/m 44,5 km/h (6 Bft) SW45 235 0 min 0 lux 0 W/m
21.12.2015 21:00 10,6 C 10,1 C 81 % 1019,0 hPa 0,0 l/m 44,5 km/h (6 Bft) SW45 235 0 min 0 lux 0 W/m
21.12.2015 21:05 10,6 C 10,3 C 81 % 1019,0 hPa 0,0 l/m 44,5 km/h (6 Bft) SW45 235 0 min 0 lux 0 W/m
21.12.2015 21:10 10,8 C 10,4 C 81 % 1019,0 hPa 0,0 l/m 44,5 km/h (6 Bft) SW45 235 0 min 0 lux 0 W/m
21.12.2015 21:15 10,8 C 10,5 C 81 % 1019,0 hPa 0,0 l/m 44,5 km/h (6 Bft) SW45 235 0 min 0 lux 0 W/m
21.12.2015 21:20 10,7 C 10,3 C 82 % 1019,0 hPa 0,0 l/m 44,5 km/h (6 Bft) SW45 235 0 min 0 lux 0 W/m
21.12.2015 21:25 10,7 C 10,2 C 82 % 1019,0 hPa 0,0 l/m 44,5 km/h (6 Bft) SW45 235 0 min 0 lux 0 W/m
21.12.2015 21:30 10,7 C 10,2 C 82 % 1019,0 hPa 0,0 l/m 44,5 km/h (6 Bft) SW45 235 0 min 0 lux 0 W/m
21.12.2015 21:35 10,5 C 10,2 C 84 % 1019,0 hPa 0,0 l/m 44,5 km/h (6 Bft) SW45 235 0 min 0 lux 0 W/m
21.12.2015 21:40 10,5 C 10,1 C 84 % 1019,0 hPa 0,0 l/m 43,3 km/h (6 Bft) SW67.5 220 0 min 0 lux 0 W/m
21.12.2015 21:45 10,5 C 10,2 C 84 % 1019,0 hPa 0,0 l/m 43,3 km/h (6 Bft) SW67.5 220 0 min 0 lux 0 W/m
21.12.2015 21:50 10,5 C 10,2 C 84 % 1019,0 hPa 0,0 l/m 43,3 km/h (6 Bft) SW67.5 220 0 min 0 lux 0 W/m
21.12.2015 21:55 10,5 C 10,2 C 84 % 1019,0 hPa 0,0 l/m 44,4 km/h (6 Bft) SW67.5 225 0 min 0 lux 0 W/m
21.12.2015 22:00 10,5 C 10,2 C 85 % 1019,0 hPa 0,0 l/m 60,0 km/h (7 Bft) SW 215 0 min 15,4 klux 0 W/m
21.12.2015 22:05 10,4 C 10,2 C 85 % 1020,0 hPa 0,0 l/m 43,9 km/h (6 Bft) W-SW45 240 0 min 0 lux 0 W/m
21.12.2015 22:10 10,4 C 10,2 C 86 % 1020,0 hPa 0,0 l/m 33,2 km/h (5 Bft) SW45 215 0 min 0 lux 0 W/m
21.12.2015 22:15 10,4 C 10,2 C 86 % 1020,0 hPa 0,0 l/m 33,2 km/h (5 Bft) SW45 215 0 min 0 lux 0 W/m
21.12.2015 22:19 10,4 C 10,2 C 87 % 1020,0 hPa 0,0 l/m 33,2 km/h (5 Bft) SW45 215 0 min 0 lux 0 W/m
21.12.2015 22:25 10,4 C 10,2 C 87 % 1020,0 hPa 0,0 l/m 33,2 km/h (5 Bft) SW45 215 0 min 0 lux 0 W/m
21.12.2015 22:30 10,4 C 10,2 C 87 % 1020,0 hPa 0,0 l/m 33,2 km/h (5 Bft) SW45 215 0 min 0 lux 0 W/m
21.12.2015 22:35 10,4 C 10,2 C 87 % 1020,0 hPa 0,0 l/m 33,2 km/h (5 Bft) SW45 215 0 min 0 lux 0 W/m
21.12.2015 22:40 10,4 C 10,2 C 87 % 1020,0 hPa 0,0 l/m 33,2 km/h (5 Bft) SW45 215 0 min 0 lux 0 W/m
21.12.2015 22:45 10,4 C 10,3 C 87 % 1021,0 hPa 0,0 l/m 33,2 km/h (5 Bft) SW45 215 0 min 0 lux 0 W/m
21.12.2015 22:49 10,5 C 10,3 C 87 % 1021,0 hPa 0,0 l/m 33,2 km/h (5 Bft) SW45 215 0 min 0 lux 0 W/m
21.12.2015 22:55 10,5 C 10,3 C 87 % 1021,0 hPa 0,0 l/m 33,2 km/h (5 Bft) SW45 215 0 min 0 lux 0 W/m
21.12.2015 23:00 10,6 C 10,5 C 87 % 1021,0 hPa 0,0 l/m 33,2 km/h (5 Bft) SW45 215 0 min 0 lux 0 W/m
21.12.2015 23:05 10,6 C 10,4 C 87 % 1021,0 hPa 0,0 l/m 33,2 km/h (5 Bft) SW45 215 0 min 0 lux 0 W/m
21.12.2015 23:09 10,6 C 10,4 C 87 % 1021,0 hPa 0,0 l/m 33,2 km/h (5 Bft) SW45 215 0 min 0 lux 0 W/m
21.12.2015 23:15 10,7 C 10,5 C 87 % 1021,0 hPa 0,0 l/m 32,8 km/h (5 Bft) SW45 235 0 min 0 lux 0 W/m
21.12.2015 23:20 10,6 C 10,5 C 87 % 1021,0 hPa 0,0 l/m 33,0 km/h (5 Bft) O-NO 70 0 min 200 klux 0 W/m
21.12.2015 23:25 10,6 C 10,5 C 87 % 1021,0 hPa 0,0 l/m 32,8 km/h (5 Bft) SW45 235 0 min 0 lux 0 W/m
21.12.2015 23:30 10,6 C 10,5 C 88 % 1021,0 hPa 0,0 l/m 32,8 km/h (5 Bft) SW45 235 0 min 0 lux 0 W/m
21.12.2015 23:35 10,6 C 10,4 C 88 % 1021,0 hPa 0,0 l/m 32,8 km/h (5 Bft) SW45 235 0 min 0 lux 0 W/m
21.12.2015 23:39 10,7 C 10,5 C 87 % 1021,0 hPa 0,0 l/m 32,8 km/h (5 Bft) SW45 235 0 min 0 lux 0 W/m
21.12.2015 23:45 10,8 C 10,5 C 87 % 1021,0 hPa 0,0 l/m 32,8 km/h (5 Bft) SW45 235 0 min 0 lux 0 W/m
21.12.2015 23:50 10,8 C 10,4 C 87 % 1022,0 hPa 0,0 l/m 32,8 km/h (5 Bft) SW45 235 0 min 0 lux 0 W/m
21.12.2015 23:55 10,8 C 10,4 C 87 % 1022,0 hPa 0,0 l/m 32,8 km/h (5 Bft) SW45 235 0 min 0 lux 0 W/m
_ Min-Zeit 09:00 08:50 15:00 19:25 - 04:19 - - - - -
Minimum _ 9,6 C 7,4 C 69 % 1017,0 hPa - 10,1 km/h (2 Bft) - - - - -
_ Max-Zeit 00:40 10:50 23:30 23:50 03:05 22:00 - - 09:15 02:00 10:00
Maximum _ 11,9 C 14,0 C 88 % 1022,0 hPa 0,4 l/m 60,0 km/h
SW (7 Bft)
- - 6 min 200 klux 1368 W/m
Durchschnitt _ 10,7 C 10,3 C 78 % 1018,8 hPa #1,8 l/m 30,6 km/h (5 Bft) SW - #1:32 h 6,76 klux 81 W/m